createdAt,value
2022-10-04T00:01:44.352Z,9.48
2022-10-04T00:04:25.139Z,9.50
2022-10-04T00:07:14.159Z,9.50
2022-10-04T00:10:13.476Z,9.60
2022-10-04T00:12:50.553Z,9.60
2022-10-04T00:15:21.313Z,9.70
2022-10-04T00:18:21.270Z,9.70
2022-10-04T00:20:49.906Z,9.80
2022-10-04T00:23:28.783Z,9.80
2022-10-04T00:26:04.423Z,9.80
2022-10-04T00:28:36.484Z,9.84
2022-10-04T00:31:24.132Z,9.90
2022-10-04T00:34:16.367Z,9.90
2022-10-04T00:36:50.517Z,9.90
2022-10-04T00:39:26.053Z,9.88
2022-10-04T00:42:42.270Z,9.82
2022-10-04T00:45:24.530Z,9.80
2022-10-04T00:48:03.710Z,9.80
2022-10-04T00:50:39.331Z,9.80
2022-10-04T00:53:21.817Z,9.70
2022-10-04T00:55:56.442Z,9.70
2022-10-04T00:58:33.273Z,9.60
2022-10-04T01:01:00.696Z,9.60
2022-10-04T01:03:39.206Z,9.50
2022-10-04T01:06:08.559Z,9.50
2022-10-04T01:08:44.914Z,9.50
2022-10-04T01:11:18.117Z,9.42
2022-10-04T01:14:08.669Z,9.40
2022-10-04T01:16:36.997Z,9.40
2022-10-04T01:19:21.452Z,9.32
2022-10-04T01:22:08.916Z,9.30
2022-10-04T01:24:40.335Z,9.30
2022-10-04T01:27:50.621Z,9.20
2022-10-04T01:30:16.984Z,9.20
2022-10-04T01:32:45.222Z,9.20
2022-10-04T01:35:14.275Z,9.14
2022-10-04T01:37:40.755Z,9.10
2022-10-04T01:40:09.028Z,9.10
2022-10-04T01:42:49.278Z,9.10
2022-10-04T01:45:46.296Z,9.10
2022-10-04T01:48:17.655Z,9.10
2022-10-04T01:50:55.013Z,9.02
2022-10-04T01:53:30.145Z,9.00
2022-10-04T01:56:16.811Z,9.00
2022-10-04T01:58:49.201Z,9.00
2022-10-04T02:01:21.848Z,9.00
2022-10-04T02:04:00.137Z,9.00
2022-10-04T02:06:27.213Z,8.94
2022-10-04T02:08:56.803Z,8.90
2022-10-04T02:11:27.619Z,8.90
2022-10-04T02:13:54.779Z,8.90
2022-10-04T02:16:23.845Z,8.90
2022-10-04T02:18:50.987Z,8.86
2022-10-04T02:21:18.389Z,8.80
2022-10-04T02:23:46.601Z,8.80
2022-10-04T02:26:13.321Z,8.80
2022-10-04T02:28:39.574Z,8.80
2022-10-04T02:31:26.460Z,8.80
2022-10-04T02:33:57.454Z,8.80
2022-10-04T02:36:27.822Z,8.80
2022-10-04T02:39:06.142Z,8.70
2022-10-04T02:41:37.595Z,8.70
2022-10-04T02:44:17.404Z,8.70
2022-10-04T02:46:53.644Z,8.70
2022-10-04T02:49:29.619Z,8.68
2022-10-04T02:52:15.675Z,8.60
2022-10-04T02:55:06.763Z,8.60
2022-10-04T02:57:34.233Z,8.60
2022-10-04T03:00:12.155Z,8.60
2022-10-04T03:02:39.495Z,8.60
2022-10-04T03:05:12.797Z,8.60
2022-10-04T03:07:39.781Z,8.52
2022-10-04T03:10:12.060Z,8.56
2022-10-04T03:12:42.750Z,8.52
2022-10-04T03:15:12.337Z,8.50
2022-10-04T03:17:41.533Z,8.50
2022-10-04T03:20:14.014Z,8.50
2022-10-04T03:22:46.935Z,8.50
2022-10-04T03:25:23.266Z,8.42
2022-10-04T03:27:50.595Z,8.40
2022-10-04T03:30:20.609Z,8.40
2022-10-04T03:32:48.660Z,8.40
2022-10-04T03:35:29.923Z,8.40
2022-10-04T03:37:58.385Z,8.32
2022-10-04T03:40:31.100Z,8.30
2022-10-04T03:43:00.539Z,8.30
2022-10-04T03:45:28.505Z,8.30
2022-10-04T03:48:04.544Z,8.30
2022-10-04T03:50:36.404Z,8.30
2022-10-04T03:53:12.111Z,8.30
2022-10-04T03:55:45.264Z,8.30
2022-10-04T03:58:16.512Z,8.30
2022-10-04T04:00:59.780Z,8.20
2022-10-04T04:03:29.308Z,8.20
2022-10-04T04:05:59.618Z,8.20
2022-10-04T04:08:39.153Z,8.20
2022-10-04T04:11:10.656Z,8.20
2022-10-04T04:14:00.707Z,8.20
2022-10-04T04:16:27.765Z,8.20
2022-10-04T04:19:00.398Z,8.10
2022-10-04T04:21:27.648Z,8.10
2022-10-04T04:24:00.113Z,8.10
2022-10-04T04:26:43.389Z,8.10
2022-10-04T04:29:22.372Z,8.10
2022-10-04T04:32:33.369Z,8.10
2022-10-04T04:35:07.241Z,8.02
2022-10-04T04:37:37.784Z,8.00
2022-10-04T04:40:23.985Z,8.00
2022-10-04T04:42:51.591Z,7.94
2022-10-04T04:45:25.163Z,7.90
2022-10-04T04:47:56.732Z,7.88
2022-10-04T04:50:27.295Z,7.90
2022-10-04T04:53:07.101Z,7.90
2022-10-04T04:56:05.070Z,7.90
2022-10-04T04:58:46.945Z,7.90
2022-10-04T05:01:26.389Z,8.00
2022-10-04T05:04:04.409Z,8.00
2022-10-04T05:06:32.767Z,8.00
2022-10-04T05:08:58.927Z,7.98
2022-10-04T05:11:32.156Z,7.96
2022-10-04T05:14:08.997Z,7.94
2022-10-04T05:16:55.281Z,7.98
2022-10-04T05:19:26.943Z,7.98
2022-10-04T05:21:56.135Z,8.00
2022-10-04T05:24:29.846Z,7.98
2022-10-04T05:27:03.135Z,8.00
2022-10-04T05:29:37.697Z,8.00
2022-10-04T05:32:59.752Z,8.00
2022-10-04T05:35:28.151Z,8.10
2022-10-04T05:38:38.371Z,8.10
2022-10-04T05:41:15.620Z,8.20
2022-10-04T05:43:49.437Z,8.20
2022-10-04T05:46:24.546Z,8.30
2022-10-04T05:49:19.458Z,8.36
2022-10-04T05:52:01.283Z,8.40
2022-10-04T05:54:32.176Z,8.50
2022-10-04T05:57:31.080Z,8.50
2022-10-04T06:00:13.832Z,8.58
2022-10-04T06:03:15.271Z,8.60
2022-10-04T06:06:08.705Z,8.70
2022-10-04T06:08:46.522Z,8.80
2022-10-04T06:11:56.336Z,8.90
2022-10-04T06:14:41.033Z,9.00
2022-10-04T06:17:25.363Z,9.08
2022-10-04T06:20:06.017Z,9.20
2022-10-04T06:22:32.585Z,9.40
2022-10-04T06:25:05.826Z,9.50
2022-10-04T06:27:43.498Z,9.60
2022-10-04T06:30:18.633Z,9.70
2022-10-04T06:32:59.799Z,9.80
2022-10-04T06:35:59.939Z,9.90
2022-10-04T06:39:10.339Z,9.90
2022-10-04T06:42:06.691Z,9.92
2022-10-04T06:45:20.647Z,10.00
2022-10-04T06:48:08.350Z,10.10
2022-10-04T06:51:15.218Z,10.20
2022-10-04T06:54:08.054Z,10.26
2022-10-04T06:56:49.152Z,10.32
2022-10-04T06:59:51.998Z,10.40
2022-10-04T07:02:45.149Z,10.50
2022-10-04T07:05:33.142Z,10.68
2022-10-04T07:08:31.949Z,10.80
2022-10-04T07:11:13.193Z,10.98
2022-10-04T07:13:56.977Z,11.10
2022-10-04T07:16:46.504Z,11.20
2022-10-04T07:19:46.609Z,11.36
2022-10-04T07:22:35.395Z,11.50
2022-10-04T07:25:23.806Z,11.52
2022-10-04T07:28:26.928Z,11.68
2022-10-04T07:31:14.667Z,11.80
2022-10-04T07:33:54.188Z,11.70
2022-10-04T07:36:38.612Z,11.88
2022-10-04T07:39:14.818Z,12.00
2022-10-04T07:41:49.664Z,12.20
2022-10-04T07:44:40.746Z,12.40
2022-10-04T07:47:20.690Z,12.60
2022-10-04T07:49:50.299Z,12.74
2022-10-04T07:52:56.918Z,12.70
2022-10-04T07:55:43.790Z,12.90
2022-10-04T07:58:25.313Z,13.10
2022-10-04T08:01:06.329Z,13.10
2022-10-04T08:04:17.777Z,13.20
2022-10-04T08:06:59.278Z,13.32
2022-10-04T08:09:41.965Z,13.50
2022-10-04T08:12:19.969Z,13.60
2022-10-04T08:15:34.317Z,13.60
2022-10-04T08:18:55.010Z,13.70
2022-10-04T08:21:36.094Z,13.82
2022-10-04T08:24:35.400Z,13.90
2022-10-04T08:27:39.123Z,14.00
2022-10-04T08:30:16.514Z,14.20
2022-10-04T08:33:11.594Z,14.32
2022-10-04T08:35:45.581Z,14.60
2022-10-04T08:38:42.355Z,14.80
2022-10-04T08:41:49.046Z,15.12
2022-10-04T08:44:52.790Z,15.78
2022-10-04T08:48:23.989Z,16.54
2022-10-04T08:51:23.908Z,17.38
2022-10-04T08:54:27.213Z,18.06
2022-10-04T08:57:15.838Z,18.60
2022-10-04T08:59:57.143Z,19.16
2022-10-04T09:02:53.218Z,19.62
2022-10-04T09:05:51.078Z,19.80
2022-10-04T09:08:38.547Z,19.94
2022-10-04T09:11:29.827Z,20.20
2022-10-04T09:14:38.307Z,20.30
2022-10-04T09:17:28.191Z,20.60
2022-10-04T09:20:53.239Z,20.60
2022-10-04T09:23:31.475Z,20.54
2022-10-04T09:26:32.455Z,20.50
2022-10-04T09:29:16.187Z,20.50
2022-10-04T09:32:28.419Z,20.40
2022-10-04T09:35:13.321Z,20.40
2022-10-04T09:38:04.921Z,20.10
2022-10-04T09:41:08.821Z,19.78
2022-10-04T09:44:33.257Z,19.70
2022-10-04T09:47:31.260Z,19.80
2022-10-04T09:50:36.675Z,20.00
2022-10-04T09:53:21.307Z,20.28
2022-10-04T09:56:03.842Z,20.36
2022-10-04T09:58:58.404Z,20.50
2022-10-04T10:02:18.431Z,20.74
2022-10-04T10:05:22.215Z,20.82
2022-10-04T10:08:16.175Z,21.00
2022-10-04T10:11:34.443Z,21.00
2022-10-04T10:14:23.674Z,21.00
2022-10-04T10:17:18.717Z,20.90
2022-10-04T10:20:09.349Z,20.50
2022-10-04T10:23:19.942Z,20.20
2022-10-04T10:26:13.939Z,19.90
2022-10-04T10:29:02.408Z,19.90
2022-10-04T10:31:55.947Z,19.64
2022-10-04T10:35:22.511Z,19.34
2022-10-04T10:38:16.464Z,19.00
2022-10-04T10:41:40.493Z,19.10
2022-10-04T10:44:22.082Z,18.90
2022-10-04T10:47:44.199Z,19.00
2022-10-04T10:50:57.701Z,18.98
2022-10-04T10:54:06.940Z,18.90
2022-10-04T10:57:17.220Z,18.90
2022-10-04T11:00:11.283Z,18.90
2022-10-04T11:03:13.167Z,18.90
2022-10-04T11:05:59.373Z,18.90
2022-10-04T11:09:13.406Z,19.00
2022-10-04T11:12:18.043Z,19.10
2022-10-04T11:15:05.541Z,19.00
2022-10-04T11:18:11.774Z,18.70
2022-10-04T11:20:49.095Z,18.74
2022-10-04T11:23:51.297Z,18.82
2022-10-04T11:27:00.775Z,18.98
2022-10-04T11:30:25.758Z,18.94
2022-10-04T11:33:27.956Z,18.90
2022-10-04T11:36:29.494Z,18.70
2022-10-04T11:39:25.090Z,18.60
2022-10-04T11:42:43.449Z,18.60
2022-10-04T11:45:33.464Z,18.60
2022-10-04T11:48:45.398Z,18.62
2022-10-04T11:51:31.546Z,18.70
2022-10-04T11:54:31.142Z,18.62
2022-10-04T11:57:20.539Z,18.40
2022-10-04T12:00:23.882Z,18.50
2022-10-04T12:03:36.915Z,18.50
2022-10-04T12:06:57.807Z,18.58
2022-10-04T12:09:49.164Z,18.58
2022-10-04T12:12:36.231Z,18.44
2022-10-04T12:15:48.771Z,18.42
2022-10-04T12:18:43.289Z,18.50
2022-10-04T12:21:35.342Z,18.30
2022-10-04T12:24:32.642Z,18.30
2022-10-04T12:27:36.967Z,18.30
2022-10-04T12:30:30.345Z,18.60
2022-10-04T12:33:06.138Z,18.72
2022-10-04T12:36:20.089Z,18.68
2022-10-04T12:39:10.942Z,18.70
2022-10-04T12:42:22.607Z,18.90
2022-10-04T12:44:57.579Z,18.90
2022-10-04T12:48:16.713Z,18.80
2022-10-04T12:51:14.411Z,18.80
2022-10-04T12:53:53.624Z,18.86
2022-10-04T12:56:42.641Z,18.80
2022-10-04T12:59:52.155Z,18.70
2022-10-04T13:02:43.614Z,18.70
2022-10-04T13:05:49.607Z,18.66
2022-10-04T13:08:22.121Z,18.78
2022-10-04T13:11:10.344Z,18.80
2022-10-04T13:13:49.293Z,18.80
2022-10-04T13:17:34.592Z,18.80
2022-10-04T13:20:17.609Z,18.80
2022-10-04T13:23:02.566Z,18.80
2022-10-04T13:26:17.038Z,18.70
2022-10-04T13:28:46.242Z,18.70
2022-10-04T13:31:52.682Z,18.80
2022-10-04T13:34:36.024Z,18.90
2022-10-04T13:37:39.364Z,18.86
2022-10-04T13:40:31.914Z,18.80
2022-10-04T13:43:27.734Z,18.70
2022-10-04T13:46:19.281Z,18.80
2022-10-04T13:49:15.194Z,18.80
2022-10-04T13:52:33.859Z,18.90
2022-10-04T13:55:50.025Z,18.90
2022-10-04T13:58:27.880Z,18.90
2022-10-04T14:01:35.936Z,18.70
2022-10-04T14:04:51.999Z,18.80
2022-10-04T14:08:30.519Z,18.80
2022-10-04T14:11:11.316Z,18.80
2022-10-04T14:14:28.172Z,18.80
2022-10-04T14:17:52.388Z,18.90
2022-10-04T14:21:03.055Z,18.86
2022-10-04T14:24:15.872Z,18.80
2022-10-04T14:27:09.393Z,18.80
2022-10-04T14:29:54.355Z,18.90
2022-10-04T14:32:48.092Z,18.90
2022-10-04T14:35:52.629Z,18.90
2022-10-04T14:38:38.311Z,18.90
2022-10-04T14:41:19.251Z,18.90
2022-10-04T14:44:24.964Z,19.00
2022-10-04T14:47:18.313Z,18.98
2022-10-04T14:50:00.772Z,19.00
2022-10-04T14:52:49.555Z,18.90
2022-10-04T14:55:44.634Z,18.80
2022-10-04T14:58:33.934Z,18.80
2022-10-04T15:01:20.335Z,18.80
2022-10-04T15:04:13.029Z,18.70
2022-10-04T15:06:58.716Z,18.70
2022-10-04T15:09:47.857Z,18.60
2022-10-04T15:13:08.684Z,18.40
2022-10-04T15:15:56.050Z,18.14
2022-10-04T15:18:51.691Z,18.10
2022-10-04T15:21:41.028Z,18.10
2022-10-04T15:24:15.702Z,18.10
2022-10-04T15:27:22.767Z,18.00
2022-10-04T15:30:18.708Z,18.00
2022-10-04T15:33:08.560Z,17.90
2022-10-04T15:36:01.750Z,17.80
2022-10-04T15:38:42.991Z,17.80
2022-10-04T15:41:27.568Z,17.70
2022-10-04T15:44:12.770Z,17.68
2022-10-04T15:47:06.784Z,17.60
2022-10-04T15:50:11.752Z,17.50
2022-10-04T15:53:35.674Z,17.40
2022-10-04T15:56:32.798Z,17.40
2022-10-04T15:59:46.682Z,17.30
2022-10-04T16:03:02.946Z,17.20
2022-10-04T16:05:36.913Z,17.12
2022-10-04T16:08:05.711Z,17.10
2022-10-04T16:11:02.829Z,17.00
2022-10-04T16:14:09.120Z,16.90
2022-10-04T16:16:50.208Z,16.80
2022-10-04T16:19:31.157Z,16.78
2022-10-04T16:22:14.445Z,16.70
2022-10-04T16:24:56.966Z,16.60
2022-10-04T16:27:56.592Z,16.60
2022-10-04T16:30:37.388Z,16.50
2022-10-04T16:33:30.564Z,16.50
2022-10-04T16:36:09.400Z,16.40
2022-10-04T16:39:06.547Z,16.30
2022-10-04T16:41:44.459Z,16.22
2022-10-04T16:44:48.398Z,16.20
2022-10-04T16:47:30.227Z,16.10
2022-10-04T16:50:00.036Z,16.00
2022-10-04T16:52:50.959Z,15.92
2022-10-04T16:55:41.460Z,15.90
2022-10-04T16:58:25.521Z,15.80
2022-10-04T17:01:26.710Z,15.70
2022-10-04T17:04:19.950Z,15.70
2022-10-04T17:07:28.623Z,15.60
2022-10-04T17:10:04.116Z,15.60
2022-10-04T17:13:27.538Z,15.50
2022-10-04T17:16:14.081Z,15.40
2022-10-04T17:19:05.359Z,15.40
2022-10-04T17:21:45.750Z,15.40
2022-10-04T17:25:01.312Z,15.30
2022-10-04T17:27:50.014Z,15.20
2022-10-04T17:30:24.758Z,15.20
2022-10-04T17:33:42.014Z,15.12
2022-10-04T17:36:33.919Z,15.10
2022-10-04T17:39:47.897Z,15.00
2022-10-04T17:42:54.061Z,15.00
2022-10-04T17:45:35.202Z,14.90
2022-10-04T17:48:31.927Z,14.80
2022-10-04T17:51:40.950Z,14.80
2022-10-04T17:54:43.203Z,14.70
2022-10-04T17:57:25.610Z,14.64
2022-10-04T18:00:08.667Z,14.60
2022-10-04T18:02:52.243Z,14.50
2022-10-04T18:05:27.923Z,14.42
2022-10-04T18:08:07.700Z,14.40
2022-10-04T18:10:58.081Z,14.40
2022-10-04T18:13:47.191Z,14.30
2022-10-04T18:16:48.888Z,14.30
2022-10-04T18:19:49.698Z,14.30
2022-10-04T18:22:20.490Z,14.20
2022-10-04T18:25:02.081Z,14.20
2022-10-04T18:27:29.056Z,14.20
2022-10-04T18:30:01.092Z,14.10
2022-10-04T18:32:26.944Z,14.10
2022-10-04T18:34:59.509Z,14.00
2022-10-04T18:37:38.009Z,14.00
2022-10-04T18:40:20.675Z,13.90
2022-10-04T18:42:59.714Z,13.90
2022-10-04T18:45:28.127Z,13.86
2022-10-04T18:47:56.609Z,13.80
2022-10-04T18:50:37.655Z,13.76
2022-10-04T18:53:21.716Z,13.70
2022-10-04T18:56:00.484Z,13.68
2022-10-04T18:59:17.060Z,13.60
2022-10-04T19:02:05.780Z,13.60
2022-10-04T19:05:26.614Z,13.50
2022-10-04T19:08:28.316Z,13.50
2022-10-04T19:11:13.555Z,13.40
2022-10-04T19:14:15.937Z,13.40
2022-10-04T19:17:17.668Z,13.40
2022-10-04T19:20:09.871Z,13.30
2022-10-04T19:23:02.419Z,13.26
2022-10-04T19:25:40.472Z,13.20
2022-10-04T19:28:11.971Z,13.20
2022-10-04T19:30:59.880Z,13.10
2022-10-04T19:33:53.731Z,13.10
2022-10-04T19:36:57.664Z,13.08
2022-10-04T19:40:20.673Z,13.00
2022-10-04T19:43:10.492Z,13.00
2022-10-04T19:46:10.968Z,12.90
2022-10-04T19:49:27.985Z,12.90
2022-10-04T19:52:21.293Z,12.80
2022-10-04T19:54:53.070Z,12.80
2022-10-04T19:57:37.467Z,12.70
2022-10-04T20:00:12.041Z,12.70
2022-10-04T20:02:45.958Z,12.66
2022-10-04T20:05:23.855Z,12.60
2022-10-04T20:07:56.430Z,12.60
2022-10-04T20:10:32.863Z,12.50
2022-10-04T20:13:12.779Z,12.50
2022-10-04T20:15:39.447Z,12.50
2022-10-04T20:18:33.722Z,12.50
2022-10-04T20:21:00.426Z,12.48
2022-10-04T20:23:38.759Z,12.40
2022-10-04T20:26:10.221Z,12.40
2022-10-04T20:28:42.649Z,12.30
2022-10-04T20:31:32.394Z,12.30
2022-10-04T20:34:37.759Z,12.30
2022-10-04T20:37:08.235Z,12.20
2022-10-04T20:39:40.143Z,12.20
2022-10-04T20:42:38.099Z,12.20
2022-10-04T20:45:09.864Z,12.14
2022-10-04T20:47:48.813Z,12.10
2022-10-04T20:50:24.250Z,12.10
2022-10-04T20:53:05.361Z,12.06
2022-10-04T20:55:36.035Z,12.00
2022-10-04T20:58:24.846Z,12.00
2022-10-04T21:00:54.419Z,12.00
2022-10-04T21:03:21.926Z,12.00
2022-10-04T21:06:07.826Z,11.96
2022-10-04T21:08:35.066Z,11.90
2022-10-04T21:11:20.048Z,11.90
2022-10-04T21:13:52.604Z,11.90
2022-10-04T21:16:48.935Z,11.90
2022-10-04T21:19:47.788Z,11.90
2022-10-04T21:22:16.458Z,11.90
2022-10-04T21:24:45.414Z,11.80
2022-10-04T21:27:31.696Z,11.80
2022-10-04T21:29:59.795Z,11.80
2022-10-04T21:32:27.317Z,11.80
2022-10-04T21:34:54.643Z,11.80
2022-10-04T21:37:21.518Z,11.80
2022-10-04T21:39:47.572Z,11.80
2022-10-04T21:42:13.661Z,11.70
2022-10-04T21:44:39.760Z,11.70
2022-10-04T21:47:05.759Z,11.70
2022-10-04T21:49:31.814Z,11.70
2022-10-04T21:51:57.758Z,11.66
2022-10-04T21:54:24.185Z,11.60
2022-10-04T21:56:50.184Z,11.60
2022-10-04T21:59:16.146Z,11.60
2022-10-04T22:01:42.065Z,11.58
2022-10-04T22:04:07.985Z,11.50
2022-10-04T22:06:33.903Z,11.50
2022-10-04T22:08:59.817Z,11.50
2022-10-04T22:11:25.982Z,11.50
2022-10-04T22:13:51.934Z,11.48
2022-10-04T22:16:17.908Z,11.40
2022-10-04T22:18:43.877Z,11.40
2022-10-04T22:21:09.856Z,11.40
2022-10-04T22:23:40.924Z,11.40
2022-10-04T22:26:17.458Z,11.40
2022-10-04T22:28:55.299Z,11.30
2022-10-04T22:31:27.449Z,11.30
2022-10-04T22:33:54.880Z,11.30
2022-10-04T22:36:36.376Z,11.30
2022-10-04T22:39:13.936Z,11.28
2022-10-04T22:41:47.876Z,11.20
2022-10-04T22:44:24.591Z,11.20
2022-10-04T22:46:53.731Z,11.20
2022-10-04T22:49:24.157Z,11.20
2022-10-04T22:51:52.046Z,11.20
2022-10-04T22:54:24.352Z,11.20
2022-10-04T22:56:52.441Z,11.20
2022-10-04T22:59:20.633Z,11.20
2022-10-04T23:01:47.232Z,11.14
2022-10-04T23:04:18.305Z,11.10
2022-10-04T23:06:44.646Z,11.10
2022-10-04T23:09:10.962Z,11.10
2022-10-04T23:11:36.870Z,11.10
2022-10-04T23:14:02.841Z,11.10
2022-10-04T23:16:28.833Z,11.10
2022-10-04T23:19:05.392Z,11.06
2022-10-04T23:21:34.694Z,11.00
2022-10-04T23:24:14.863Z,11.00
2022-10-04T23:26:43.628Z,11.00
2022-10-04T23:29:21.659Z,11.00
2022-10-04T23:31:49.059Z,11.00
2022-10-04T23:34:36.365Z,11.00
2022-10-04T23:37:10.276Z,10.90
2022-10-04T23:39:36.977Z,10.90
2022-10-04T23:42:31.778Z,10.90
2022-10-04T23:44:59.828Z,10.90
2022-10-04T23:47:35.971Z,10.90
2022-10-04T23:50:18.155Z,10.90
2022-10-04T23:52:44.667Z,10.80
2022-10-04T23:55:27.350Z,10.80
2022-10-04T23:57:53.230Z,10.80
